createdAt,value
2022-11-10T00:01:41.505Z,75.99
2022-11-10T00:04:30.873Z,76.07
2022-11-10T00:07:22.889Z,76.32
2022-11-10T00:10:12.707Z,76.42
2022-11-10T00:13:04.327Z,76.26
2022-11-10T00:16:23.465Z,76.11
2022-11-10T00:19:12.990Z,75.97
2022-11-10T00:22:02.798Z,76.38
2022-11-10T00:24:52.250Z,76.21
2022-11-10T00:27:41.585Z,75.77
2022-11-10T00:30:30.871Z,76.05
2022-11-10T00:33:20.300Z,75.95
2022-11-10T00:36:10.870Z,75.37
2022-11-10T00:39:00.399Z,75.58
2022-11-10T00:41:49.899Z,75.70
2022-11-10T00:44:39.115Z,75.79
2022-11-10T00:47:28.459Z,75.37
2022-11-10T00:50:17.923Z,75.27
2022-11-10T00:53:07.307Z,75.28
2022-11-10T00:55:56.606Z,75.29
2022-11-10T00:58:46.183Z,75.28
2022-11-10T01:01:36.084Z,75.29
2022-11-10T01:04:25.389Z,75.71
2022-11-10T01:07:14.609Z,75.40
2022-11-10T01:10:03.877Z,75.12
2022-11-10T01:12:53.028Z,75.43
2022-11-10T01:15:44.090Z,75.55
2022-11-10T01:18:33.562Z,76.01
2022-11-10T01:21:24.585Z,75.90
2022-11-10T01:24:13.916Z,75.95
2022-11-10T01:27:03.461Z,75.52
2022-11-10T01:29:52.917Z,76.14
2022-11-10T01:32:42.470Z,76.33
2022-11-10T01:35:32.011Z,75.90
2022-11-10T01:38:21.623Z,75.67
2022-11-10T01:41:14.371Z,75.64
2022-11-10T01:44:18.826Z,76.14
2022-11-10T01:47:08.005Z,76.06
2022-11-10T01:49:57.588Z,76.59
2022-11-10T01:52:50.917Z,76.32
2022-11-10T01:55:42.903Z,76.59
2022-11-10T01:58:40.247Z,76.39
2022-11-10T02:01:29.860Z,76.24
2022-11-10T02:04:21.699Z,76.03
2022-11-10T02:07:12.032Z,76.18
2022-11-10T02:10:04.676Z,76.05
2022-11-10T02:12:54.567Z,75.84
2022-11-10T02:15:43.991Z,75.91
2022-11-10T02:18:33.582Z,76.14
2022-11-10T02:21:23.558Z,76.14
2022-11-10T02:24:12.917Z,75.83
2022-11-10T02:27:02.215Z,75.66
2022-11-10T02:29:51.793Z,75.49
2022-11-10T02:32:41.226Z,75.55
2022-11-10T02:35:30.615Z,75.62
2022-11-10T02:38:20.169Z,75.97
2022-11-10T02:41:10.293Z,75.58
2022-11-10T02:44:00.533Z,75.46
2022-11-10T02:46:49.840Z,75.23
2022-11-10T02:49:39.170Z,75.14
2022-11-10T02:52:28.836Z,75.29
2022-11-10T02:55:18.471Z,75.11
2022-11-10T02:58:07.966Z,74.75
2022-11-10T03:00:57.426Z,74.78
2022-11-10T03:03:46.815Z,74.65
2022-11-10T03:06:36.252Z,75.08
2022-11-10T03:09:25.725Z,75.02
2022-11-10T03:12:15.167Z,75.01
2022-11-10T03:15:04.716Z,75.15
2022-11-10T03:17:54.154Z,75.35
2022-11-10T03:20:43.653Z,75.42
2022-11-10T03:23:33.781Z,75.83
2022-11-10T03:26:23.182Z,75.86
2022-11-10T03:29:12.375Z,76.11
2022-11-10T03:32:01.951Z,76.00
2022-11-10T03:34:51.722Z,75.68
2022-11-10T03:37:43.505Z,75.87
2022-11-10T03:40:45.514Z,75.74
2022-11-10T03:43:43.234Z,76.19
2022-11-10T03:46:32.965Z,76.23
2022-11-10T03:49:22.099Z,76.33
2022-11-10T03:52:11.506Z,76.48
2022-11-10T03:55:03.497Z,76.21
2022-11-10T03:57:53.617Z,76.05
2022-11-10T04:00:43.183Z,75.89
2022-11-10T04:03:32.560Z,75.58
2022-11-10T04:06:39.896Z,75.48
2022-11-10T04:09:29.271Z,75.75
2022-11-10T04:12:36.111Z,76.04
2022-11-10T04:15:43.885Z,76.03
2022-11-10T04:18:33.386Z,76.36
2022-11-10T04:21:22.698Z,76.38
2022-11-10T04:24:12.342Z,76.60
2022-11-10T04:27:01.554Z,76.76
2022-11-10T04:29:50.620Z,76.86
2022-11-10T04:32:40.382Z,77.06
2022-11-10T04:35:29.908Z,77.08
2022-11-10T04:38:19.483Z,77.13
2022-11-10T04:41:09.505Z,77.05
2022-11-10T04:43:59.316Z,77.06
2022-11-10T04:46:49.636Z,76.84
2022-11-10T04:49:38.708Z,76.84
2022-11-10T04:52:28.006Z,77.01
2022-11-10T04:55:17.647Z,77.04
2022-11-10T04:58:06.841Z,77.39
2022-11-10T05:00:56.414Z,77.49
2022-11-10T05:03:46.389Z,77.61
2022-11-10T05:06:38.306Z,77.74
2022-11-10T05:09:28.569Z,77.96
2022-11-10T05:12:22.228Z,77.93
2022-11-10T05:15:13.450Z,77.89
2022-11-10T05:18:03.273Z,77.87
2022-11-10T05:20:53.444Z,77.79
2022-11-10T05:23:44.152Z,77.69
2022-11-10T05:26:33.635Z,77.78
2022-11-10T05:29:23.031Z,77.92
2022-11-10T05:32:12.181Z,78.02
2022-11-10T05:35:01.159Z,78.28
2022-11-10T05:37:50.472Z,78.52
2022-11-10T05:40:39.700Z,78.71
2022-11-10T05:43:29.431Z,78.69
2022-11-10T05:46:18.827Z,78.87
2022-11-10T05:49:08.180Z,78.91
2022-11-10T05:51:57.441Z,78.94
2022-11-10T05:54:46.729Z,79.04
2022-11-10T05:57:36.498Z,79.15
2022-11-10T06:00:28.286Z,79.21
2022-11-10T06:03:20.352Z,79.30
2022-11-10T06:06:10.556Z,79.14
2022-11-10T06:09:00.125Z,79.15
2022-11-10T06:11:49.527Z,79.12
2022-11-10T06:14:38.991Z,79.28
2022-11-10T06:17:28.661Z,79.11
2022-11-10T06:20:18.895Z,79.02
2022-11-10T06:23:11.169Z,79.19
2022-11-10T06:26:00.696Z,79.16
2022-11-10T06:28:50.379Z,79.37
2022-11-10T06:31:39.502Z,79.64
2022-11-10T06:34:28.834Z,79.53
2022-11-10T06:37:18.417Z,79.52
2022-11-10T06:40:10.661Z,79.41
2022-11-10T06:43:01.565Z,79.53
2022-11-10T06:45:50.695Z,79.56
2022-11-10T06:48:40.295Z,79.65
2022-11-10T06:51:30.473Z,79.65
2022-11-10T06:54:19.946Z,79.74
2022-11-10T06:57:09.582Z,79.59
2022-11-10T06:59:58.729Z,79.61
2022-11-10T07:02:48.074Z,79.65
2022-11-10T07:05:38.333Z,79.76
2022-11-10T07:08:27.923Z,79.59
2022-11-10T07:11:17.748Z,79.55
2022-11-10T07:14:07.407Z,79.60
2022-11-10T07:16:56.520Z,79.70
2022-11-10T07:19:45.662Z,79.91
2022-11-10T07:22:34.745Z,79.95
2022-11-10T07:25:24.261Z,79.89
2022-11-10T07:28:13.433Z,79.74
2022-11-10T07:31:05.610Z,79.72
2022-11-10T07:33:55.155Z,80.10
2022-11-10T07:36:44.468Z,79.64
2022-11-10T07:39:33.699Z,79.51
2022-11-10T07:42:22.913Z,79.47
2022-11-10T07:45:13.330Z,79.42
2022-11-10T07:48:03.915Z,79.51
2022-11-10T07:50:54.406Z,79.61
2022-11-10T07:53:44.423Z,79.73
2022-11-10T07:56:33.698Z,79.96
2022-11-10T07:59:23.081Z,80.08
2022-11-10T08:02:13.816Z,79.90
2022-11-10T08:05:03.282Z,79.74
2022-11-10T08:07:53.700Z,80.00
2022-11-10T08:10:44.309Z,80.08
2022-11-10T08:13:33.907Z,80.22
2022-11-10T08:16:23.448Z,80.32
2022-11-10T08:19:12.910Z,80.49
2022-11-10T08:22:02.237Z,80.62
2022-11-10T08:24:51.328Z,80.25
2022-11-10T08:27:40.704Z,80.36
2022-11-10T08:30:31.502Z,80.39
2022-11-10T08:33:22.490Z,80.29
2022-11-10T08:36:12.750Z,80.10
2022-11-10T08:39:02.320Z,80.07
2022-11-10T08:41:51.552Z,80.09
2022-11-10T08:44:41.183Z,80.12
2022-11-10T08:47:30.415Z,80.16
2022-11-10T08:50:20.026Z,80.02
2022-11-10T08:53:11.745Z,80.05
2022-11-10T08:56:02.392Z,80.10
2022-11-10T08:58:53.464Z,80.14
2022-11-10T09:01:43.226Z,80.01
2022-11-10T09:04:32.754Z,80.14
2022-11-10T09:07:22.110Z,79.99
2022-11-10T09:10:13.039Z,79.75
2022-11-10T09:13:06.161Z,79.72
2022-11-10T09:15:55.643Z,79.75
2022-11-10T09:18:45.223Z,80.01
2022-11-10T09:21:34.772Z,80.04
2022-11-10T09:24:30.053Z,79.76
2022-11-10T09:27:21.224Z,80.01
2022-11-10T09:30:17.451Z,79.78
2022-11-10T09:33:07.674Z,79.83
2022-11-10T09:36:02.133Z,79.80
2022-11-10T09:38:51.959Z,79.72
2022-11-10T09:41:44.979Z,79.68
2022-11-10T09:44:40.290Z,79.83
2022-11-10T09:47:56.325Z,79.68
2022-11-10T09:50:50.837Z,79.94
2022-11-10T09:53:44.266Z,79.83
2022-11-10T09:56:36.875Z,79.65
2022-11-10T09:59:29.461Z,79.46
2022-11-10T10:02:29.741Z,79.58
2022-11-10T10:05:54.689Z,79.82
2022-11-10T10:08:53.169Z,79.87
2022-11-10T10:11:54.855Z,79.83
2022-11-10T10:14:57.582Z,79.88
2022-11-10T10:17:59.221Z,79.67
2022-11-10T10:21:05.050Z,79.49
2022-11-10T10:24:10.511Z,79.44
2022-11-10T10:27:07.500Z,79.68
2022-11-10T10:29:57.199Z,79.51
2022-11-10T10:32:46.470Z,79.38
2022-11-10T10:35:41.477Z,79.36
2022-11-10T10:38:36.003Z,79.32
2022-11-10T10:41:27.960Z,78.87
2022-11-10T10:44:19.312Z,78.90
2022-11-10T10:47:08.515Z,78.93
2022-11-10T10:50:23.168Z,78.29
2022-11-10T10:53:17.624Z,77.86
2022-11-10T10:56:17.101Z,78.08
2022-11-10T10:59:18.272Z,78.26
2022-11-10T11:02:26.554Z,78.20
2022-11-10T11:05:20.392Z,78.13
2022-11-10T11:08:25.664Z,77.78
2022-11-10T11:11:15.245Z,77.86
2022-11-10T11:14:20.216Z,77.86
2022-11-10T11:17:19.734Z,77.51
2022-11-10T11:20:16.080Z,77.36
2022-11-10T11:23:14.889Z,77.45
2022-11-10T11:26:11.206Z,77.16
2022-11-10T11:29:10.196Z,77.30
2022-11-10T11:32:12.175Z,76.56
2022-11-10T11:35:13.020Z,76.32
2022-11-10T11:38:12.525Z,76.30
2022-11-10T11:41:12.447Z,76.45
2022-11-10T11:44:16.659Z,75.99
2022-11-10T11:47:17.890Z,75.57
2022-11-10T11:50:24.355Z,75.57
2022-11-10T11:53:33.101Z,75.21
2022-11-10T11:56:28.282Z,74.99
2022-11-10T11:59:39.068Z,75.58
2022-11-10T12:02:48.690Z,75.86
2022-11-10T12:05:53.534Z,75.78
2022-11-10T12:08:57.752Z,75.75
2022-11-10T12:12:03.816Z,75.15
2022-11-10T12:15:03.092Z,74.90
2022-11-10T12:18:00.470Z,74.38
2022-11-10T12:21:00.478Z,74.84
2022-11-10T12:24:09.947Z,75.10
2022-11-10T12:27:05.256Z,74.60
2022-11-10T12:29:58.066Z,74.73
2022-11-10T12:32:54.156Z,74.65
2022-11-10T12:35:47.293Z,74.13
2022-11-10T12:38:45.320Z,74.07
2022-11-10T12:41:40.568Z,74.55
2022-11-10T12:44:36.423Z,74.62
2022-11-10T12:47:29.441Z,74.70
2022-11-10T12:50:35.458Z,74.73
2022-11-10T12:53:27.601Z,74.71
2022-11-10T12:56:25.289Z,74.46
2022-11-10T12:59:30.245Z,73.97
2022-11-10T13:02:29.164Z,74.41
2022-11-10T13:05:33.121Z,74.01
2022-11-10T13:08:49.758Z,74.47
2022-11-10T13:11:41.272Z,74.45
2022-11-10T13:14:31.968Z,74.54
2022-11-10T13:17:56.559Z,74.60
2022-11-10T13:20:56.920Z,74.82
2022-11-10T13:24:25.759Z,74.62
2022-11-10T13:27:36.434Z,74.47
2022-11-10T13:30:45.392Z,74.55
2022-11-10T13:33:39.171Z,74.78
2022-11-10T13:36:42.087Z,74.59
2022-11-10T13:39:34.521Z,74.19
2022-11-10T13:42:24.668Z,74.61
2022-11-10T13:45:33.706Z,74.42
2022-11-10T13:48:33.383Z,74.71
2022-11-10T13:51:37.734Z,74.36
2022-11-10T13:54:46.136Z,74.62
2022-11-10T13:57:38.875Z,74.65
2022-11-10T14:00:32.653Z,74.48
2022-11-10T14:03:57.515Z,74.54
2022-11-10T14:06:51.376Z,74.66
2022-11-10T14:09:44.121Z,74.86
2022-11-10T14:12:40.587Z,75.05
2022-11-10T14:15:38.625Z,75.00
2022-11-10T14:18:30.367Z,75.20
2022-11-10T14:21:28.434Z,75.30
2022-11-10T14:24:23.653Z,75.24
2022-11-10T14:27:23.167Z,75.22
2022-11-10T14:30:25.768Z,75.35
2022-11-10T14:33:16.600Z,75.23
2022-11-10T14:36:08.994Z,75.51
2022-11-10T14:38:58.243Z,75.50
2022-11-10T14:41:51.210Z,75.49
2022-11-10T14:44:41.291Z,75.46
2022-11-10T14:47:32.441Z,75.29
2022-11-10T14:50:25.147Z,75.34
2022-11-10T14:53:24.870Z,75.30
2022-11-10T14:56:22.209Z,75.40
2022-11-10T14:59:16.199Z,75.40
2022-11-10T15:02:15.328Z,75.52
2022-11-10T15:05:05.980Z,75.47
2022-11-10T15:07:58.180Z,75.61
2022-11-10T15:10:50.647Z,75.65
2022-11-10T15:13:42.105Z,75.62
2022-11-10T15:16:34.203Z,75.80
2022-11-10T15:19:27.925Z,75.82
2022-11-10T15:22:21.900Z,75.83
2022-11-10T15:25:18.852Z,75.73
2022-11-10T15:28:22.671Z,75.94
2022-11-10T15:31:15.186Z,75.75
2022-11-10T15:34:06.402Z,75.69
2022-11-10T15:37:12.092Z,75.80
2022-11-10T15:40:34.434Z,75.70
2022-11-10T15:43:29.889Z,75.68
2022-11-10T15:46:22.246Z,75.57
2022-11-10T15:49:18.093Z,75.79
2022-11-10T15:52:13.228Z,75.70
2022-11-10T15:55:02.710Z,75.62
2022-11-10T15:57:52.413Z,75.61
2022-11-10T16:00:42.090Z,75.48
2022-11-10T16:03:33.026Z,75.49
2022-11-10T16:06:22.177Z,75.58
2022-11-10T16:09:14.281Z,75.43
2022-11-10T16:12:04.053Z,75.46
2022-11-10T16:14:55.169Z,75.53
2022-11-10T16:17:45.687Z,75.67
2022-11-10T16:20:37.477Z,75.68
2022-11-10T16:23:28.603Z,75.61
2022-11-10T16:26:21.318Z,75.51
2022-11-10T16:29:15.447Z,75.44
2022-11-10T16:32:05.936Z,75.54
2022-11-10T16:34:55.787Z,75.41
2022-11-10T16:37:46.155Z,75.21
2022-11-10T16:40:35.539Z,75.29
2022-11-10T16:43:26.179Z,75.17
2022-11-10T16:46:23.759Z,75.07
2022-11-10T16:49:25.986Z,75.07
2022-11-10T16:52:18.041Z,75.02
2022-11-10T16:55:11.022Z,75.12
2022-11-10T16:58:01.175Z,74.87
2022-11-10T17:00:52.159Z,74.75
2022-11-10T17:03:47.053Z,74.77
2022-11-10T17:06:36.956Z,74.93
2022-11-10T17:09:27.843Z,74.80
2022-11-10T17:12:18.523Z,75.01
2022-11-10T17:15:10.654Z,74.98
2022-11-10T17:18:04.759Z,74.87
2022-11-10T17:20:55.724Z,74.94
2022-11-10T17:23:45.744Z,75.10
2022-11-10T17:26:36.709Z,75.18
2022-11-10T17:29:26.780Z,75.26
2022-11-10T17:32:16.211Z,75.13
2022-11-10T17:35:08.922Z,75.12
2022-11-10T17:38:00.930Z,75.15
2022-11-10T17:40:50.493Z,75.21
2022-11-10T17:43:45.252Z,75.33
2022-11-10T17:46:35.454Z,75.30
2022-11-10T17:49:25.343Z,75.31
2022-11-10T17:52:19.865Z,75.27
2022-11-10T17:55:15.662Z,75.14
2022-11-10T17:58:05.564Z,75.13
2022-11-10T18:00:55.572Z,75.37
2022-11-10T18:03:44.841Z,75.50
2022-11-10T18:06:34.171Z,75.53
2022-11-10T18:09:24.465Z,75.72
2022-11-10T18:12:13.942Z,75.73
2022-11-10T18:15:05.852Z,75.62
2022-11-10T18:18:00.869Z,75.91
2022-11-10T18:20:51.938Z,75.94
2022-11-10T18:23:43.836Z,75.83
2022-11-10T18:26:33.300Z,75.66
2022-11-10T18:29:23.055Z,75.79
2022-11-10T18:32:12.472Z,75.64
2022-11-10T18:35:04.916Z,75.66
2022-11-10T18:37:54.229Z,75.60
2022-11-10T18:40:43.848Z,75.72
2022-11-10T18:43:33.436Z,75.81
2022-11-10T18:46:23.392Z,75.70
2022-11-10T18:49:13.660Z,75.78
2022-11-10T18:52:03.704Z,75.80
2022-11-10T18:54:53.081Z,75.90
2022-11-10T18:57:42.705Z,75.93
2022-11-10T19:00:34.441Z,75.93
2022-11-10T19:03:24.469Z,76.01
2022-11-10T19:06:15.853Z,75.82
2022-11-10T19:09:06.013Z,75.72
2022-11-10T19:11:55.941Z,75.54
2022-11-10T19:14:45.708Z,75.87
2022-11-10T19:17:37.367Z,75.78
2022-11-10T19:20:26.671Z,76.18
2022-11-10T19:23:16.232Z,75.87
2022-11-10T19:26:07.376Z,75.81
2022-11-10T19:28:58.602Z,75.70
2022-11-10T19:31:49.371Z,75.66
2022-11-10T19:34:39.124Z,75.79
2022-11-10T19:37:32.142Z,75.59
2022-11-10T19:40:25.341Z,75.23
2022-11-10T19:43:14.739Z,75.55
2022-11-10T19:46:09.775Z,75.41
2022-11-10T19:48:59.071Z,75.39
2022-11-10T19:51:49.671Z,75.42
2022-11-10T19:54:39.026Z,75.45
2022-11-10T19:57:29.761Z,75.72
2022-11-10T20:00:19.532Z,75.84
2022-11-10T20:03:15.974Z,75.96
2022-11-10T20:06:07.771Z,75.85
2022-11-10T20:08:57.400Z,75.86
2022-11-10T20:11:48.120Z,75.92
2022-11-10T20:14:41.467Z,75.76
2022-11-10T20:17:30.943Z,75.73
2022-11-10T20:20:20.705Z,75.71
2022-11-10T20:23:12.770Z,75.67
2022-11-10T20:26:07.773Z,75.63
2022-11-10T20:28:57.714Z,75.68
2022-11-10T20:31:47.369Z,75.64
2022-11-10T20:34:36.739Z,75.68
2022-11-10T20:37:26.617Z,75.78
2022-11-10T20:40:42.797Z,76.05
2022-11-10T20:43:27.365Z,76.04
2022-11-10T20:46:40.257Z,76.24
2022-11-10T20:49:29.727Z,76.00
2022-11-10T20:52:19.650Z,75.96
2022-11-10T20:55:09.596Z,75.83
2022-11-10T20:57:59.291Z,75.80
2022-11-10T21:00:48.866Z,75.94
2022-11-10T21:03:39.012Z,76.09
2022-11-10T21:06:29.538Z,75.98
2022-11-10T21:09:22.147Z,76.03
2022-11-10T21:12:32.925Z,76.20
2022-11-10T21:15:24.759Z,75.95
2022-11-10T21:18:14.112Z,75.99
2022-11-10T21:21:03.638Z,76.12
2022-11-10T21:23:58.119Z,75.99
2022-11-10T21:26:47.335Z,75.84
2022-11-10T21:29:36.776Z,75.70
2022-11-10T21:32:26.854Z,75.88
2022-11-10T21:35:16.745Z,76.02
2022-11-10T21:38:06.442Z,76.10
2022-11-10T21:40:58.310Z,76.03
2022-11-10T21:43:47.877Z,76.16
2022-11-10T21:46:37.777Z,75.92
2022-11-10T21:49:29.409Z,75.82
2022-11-10T21:52:18.812Z,76.00
2022-11-10T21:55:10.729Z,75.91
2022-11-10T21:58:00.686Z,75.81
2022-11-10T22:00:51.020Z,75.95
2022-11-10T22:03:41.246Z,75.94
2022-11-10T22:06:44.145Z,75.98
2022-11-10T22:09:51.413Z,75.63
2022-11-10T22:12:58.682Z,75.97
2022-11-10T22:16:05.637Z,75.78
2022-11-10T22:18:55.040Z,75.76
2022-11-10T22:21:45.431Z,76.11
2022-11-10T22:24:35.594Z,76.54
2022-11-10T22:27:24.960Z,76.60
2022-11-10T22:30:15.247Z,76.59
2022-11-10T22:33:25.024Z,76.83
2022-11-10T22:36:17.384Z,76.64
2022-11-10T22:39:07.790Z,76.68
2022-11-10T22:42:15.115Z,76.83
2022-11-10T22:45:04.551Z,76.79
2022-11-10T22:48:28.533Z,76.58
2022-11-10T22:51:18.679Z,76.63
2022-11-10T22:54:12.768Z,76.40
2022-11-10T22:57:02.597Z,76.57
2022-11-10T22:59:52.111Z,76.69
2022-11-10T23:02:41.734Z,76.62
2022-11-10T23:05:34.766Z,76.65
2022-11-10T23:08:24.010Z,76.84
2022-11-10T23:11:19.299Z,76.80
2022-11-10T23:14:10.850Z,76.66
2022-11-10T23:17:00.492Z,76.97
2022-11-10T23:19:50.207Z,76.70
2022-11-10T23:22:39.697Z,77.01
2022-11-10T23:25:29.329Z,77.09
2022-11-10T23:28:18.744Z,77.18
2022-11-10T23:31:10.863Z,76.98
2022-11-10T23:34:00.379Z,77.05
2022-11-10T23:36:49.698Z,77.29
2022-11-10T23:39:39.246Z,77.46
2022-11-10T23:42:32.163Z,77.45
2022-11-10T23:45:22.667Z,77.34
2022-11-10T23:48:12.950Z,77.37
2022-11-10T23:51:02.174Z,77.36
2022-11-10T23:53:52.443Z,77.08
2022-11-10T23:56:41.831Z,77.09
2022-11-10T23:59:33.412Z,77.14
